Warroad, MN

1:29 PM CST on February 06, 2016 (GMT -0600)
Warroad International-Carlson | | Change Station
CLOSE
Current Station
Airport
Location: Warroad,
Elevation: 1073 ft
Nearby Weather Stations
Active Advisory: Blizzard Watch

Elev 1073 ft 48.94 °N, 95.35 °W | Updated 15 minutes ago

Clear
Clear
32 °F
Feels Like 25 °F
N
8
Wind Variable Wind from SSE

Today
High -- | Low -- °F
--% Chance of Precip.
Yesterday
High -- | Low -- °F
Precip. -- in
Pressure 29.70 in
Visibility 10.0 miles
Clouds Clear
Windchill 25 °F
Dew Point 27 °F
Humidity 80%
Rainfall 0.00 in
Snow Depth Not available.
7:44 AM 5:26 PM
Waning Crescent, 4% visible
METAR KRRT 061914Z AUTO 16007KT 10SM CLR 00/M03 A2970 RMK AO2
Pressure 29.70 in
Visibility 10.0 miles
Clouds Clear
Windchill 25 °F
Dew Point 27 °F
Humidity 80%
Rainfall 0.00 in
Snow Depth Not available.
7:44 AM 5:26 PM
Waning Crescent, 4% visible
METAR KRRT 061914Z AUTO 16007KT 10SM CLR 00/M03 A2970 RMK AO2

10-Day Weather Forecast

Almanac

Astronomy

Feb. 06, 2016 Rise Set
Actual Time
Civil Twilight
Nautical Twilight
Astronomical Twilight
Moon
Length of Visible Light
Length of Day
Tomorrow will be .
, % of the Moon is Illuminated

Today's Extremes

State Highs State Lows

Community

WunderPhotos

Upload Photos

1,891,036 photos uploaded!

WunderBlog® & News

Nearby

Air Quality

  Air Quality AQ Index Pollutant
Not available.

Snow Depth

Station Depth Elevation

Earthquake Activity

City Distance Mag. Time & Date
Minimum magnitude displayed is 2.5.

Coastal Water Temperatures

Place Temperature

Stations

Nearby Weather Stations

Station Location Temp. Windchill Dew Point Humidity Wind Precip. Elev Updated Type
                   

Watches & Warnings

Blizzard Watch
Issued: 4:08 AM CST Feb. 6, 2016 – National Weather Service

... Blizzard watch remains in effect from Sunday morning through
late Sunday night...

* timing... blizzard conditions are possible from Sunday morning
through late Sunday night.

* Winds / visibilities... winds gusting as high as 60 mph could
cause whiteout conditions in blowing snow. Significant
drifting of the snow is likely... especially in open areas.

* Snow accumulations... total snow accumulations of 1 to 3 inches
are possible.

* Impacts... travel could be very difficult to impossible.

Precautionary/preparedness actions...

A blizzard watch means there is a potential for falling and/or
blowing snow with strong winds and extremely poor visibilities.
This can lead to whiteout conditions and make travel very
dangerous.